Time;durP1;ratioP1;P1;durP2;ratioP2;P2;SDS_P1;SDS_P2;PMS_P1;PMS_P2;Temp;Humidity;BMP_temperature;BMP_pressure;BME280_temperature;BME280_humidity;BME280_pressure;Samples;Min_cycle;Max_cycle;Signal;HPM_P1;HPM_P2
2023/04/25 00:02:19;;;;;;;17.25;2.83;;;6.40;99.90;;;;;;5058710;28;20041;-57
2023/04/25 00:04:45;;;;;;;19.08;3.13;;;6.40;99.90;;;;;;5058236;28;20053;-57
2023/04/25 00:07:11;;;;;;;18.25;3.40;;;6.40;99.90;;;;;;5058201;28;20123;-56
2023/04/25 00:09:37;;;;;;;17.58;2.92;;;6.40;99.90;;;;;;5056932;28;20045;-56
2023/04/25 00:12:02;;;;;;;21.63;4.97;;;6.40;99.90;;;;;;5057952;28;20598;-57
2023/04/25 00:14:29;;;;;;;16.33;3.15;;;6.40;99.90;;;;;;5040315;28;20033;-57
2023/04/25 00:16:55;;;;;;;19.52;3.85;;;6.30;99.90;;;;;;5058350;28;20029;-56
2023/04/25 00:19:20;;;;;;;15.23;3.17;;;6.30;99.90;;;;;;5058123;28;20064;-57
2023/04/25 00:21:46;;;;;;;13.43;3.20;;;6.30;99.90;;;;;;5040265;28;20071;-56
2023/04/25 00:24:12;;;;;;;14.93;2.50;;;6.20;99.90;;;;;;5057948;28;20069;-57
2023/04/25 00:26:38;;;;;;;13.82;2.55;;;6.20;99.90;;;;;;5057966;28;20857;-57
2023/04/25 00:29:04;;;;;;;14.15;2.10;;;6.20;99.90;;;;;;5058006;28;20100;-56
2023/04/25 00:31:30;;;;;;;9.25;2.50;;;6.20;99.90;;;;;;5057940;28;20045;-56
2023/04/25 00:33:55;;;;;;;14.68;2.25;;;6.20;99.90;;;;;;5058390;28;20072;-57
2023/04/25 00:36:21;;;;;;;11.38;2.25;;;6.30;99.90;;;;;;5057974;28;20543;-57
2023/04/25 00:38:47;;;;;;;10.63;2.40;;;6.30;99.90;;;;;;5057740;28;20120;-57
2023/04/25 00:41:13;;;;;;;11.00;2.10;;;6.30;99.90;;;;;;5057830;28;20056;-57
2023/04/25 00:43:40;;;;;;;13.43;2.28;;;6.20;99.90;;;;;;5058147;28;20072;-57
2023/04/25 00:46:05;;;;;;;11.43;1.88;;;6.30;99.90;;;;;;5057638;28;20045;-57
2023/04/25 00:48:31;;;;;;;13.52;2.78;;;6.30;99.90;;;;;;5041377;28;20041;-56
2023/04/25 00:50:58;;;;;;;17.30;2.50;;;6.30;99.90;;;;;;5037984;28;20046;-57
2023/04/25 00:53:26;;;;;;;15.48;2.90;;;6.30;99.90;;;;;;5037689;28;20045;-56
2023/04/25 00:55:53;;;;;;;10.98;2.00;;;6.30;99.90;;;;;;5037571;28;20033;-56
2023/04/25 00:58:20;;;;;;;11.68;2.40;;;6.30;99.90;;;;;;5037922;28;20041;-57
2023/04/25 01:00:47;;;;;;;10.77;1.92;;;6.30;99.90;;;;;;5037707;28;20041;-57
2023/04/25 01:03:19;;;;;;;12.32;2.10;;;6.30;99.90;;;;;;5037886;28;20049;-57
2023/04/25 01:05:46;;;;;;;;;;;6.20;99.90;;;;;;5038389;28;20041;-56
2023/04/25 01:08:12;;;;;;;11.95;2.05;;;6.20;99.90;;;;;;5037803;28;20284;-56
2023/04/25 01:10:38;;;;;;;13.55;2.22;;;6.20;99.90;;;;;;5037889;28;20038;-57
2023/04/25 01:13:04;;;;;;;13.82;3.22;;;6.20;99.90;;;;;;5019784;28;20057;-57
2023/04/25 01:15:30;;;;;;;8.05;2.03;;;6.20;99.90;;;;;;5037765;28;20125;-56
2023/04/25 01:17:58;;;;;;;10.50;2.10;;;6.10;99.90;;;;;;5037820;28;20144;-56
2023/04/25 01:20:24;;;;;;;11.05;2.00;;;6.20;99.90;;;;;;5037335;28;20041;-56
2023/04/25 01:22:54;;;;;;;16.55;2.20;;;6.20;99.90;;;;;;5037666;28;20071;-56
2023/04/25 01:25:22;;;;;;;11.07;2.10;;;6.10;99.90;;;;;;5037710;28;20068;-56
2023/04/25 01:27:48;;;;;;;15.27;2.13;;;6.10;99.90;;;;;;5037601;28;20056;-56
2023/04/25 01:30:14;;;;;;;12.20;2.30;;;6.10;99.90;;;;;;5037564;28;20069;-56
2023/04/25 01:32:41;;;;;;;15.15;3.05;;;6.10;99.90;;;;;;5037570;28;20042;-56
2023/04/25 01:35:11;;;;;;;17.10;2.53;;;6.10;99.90;;;;;;5037609;28;20041;-57
2023/04/25 01:37:41;;;;;;;13.73;2.13;;;6.10;99.90;;;;;;5037030;28;20571;-55
2023/04/25 01:40:09;;;;;;;15.40;2.47;;;6.10;99.90;;;;;;5037598;28;20071;-55
2023/04/25 01:42:37;;;;;;;13.07;2.38;;;6.10;99.90;;;;;;5037816;28;20041;-57
2023/04/25 01:45:04;;;;;;;9.02;1.80;;;6.10;99.90;;;;;;5037697;28;20041;-56
2023/04/25 01:47:30;;;;;;;12.35;2.58;;;6.00;99.90;;;;;;5040108;28;20128;-56
2023/04/25 01:49:55;;;;;;;19.02;2.60;;;6.10;99.90;;;;;;5038736;28;20489;-56
2023/04/25 01:52:21;;;;;;;14.95;2.33;;;6.10;99.90;;;;;;5057192;28;20075;-56
2023/04/25 01:54:47;;;;;;;15.85;3.17;;;6.10;99.90;;;;;;5057055;28;20047;-56
2023/04/25 01:57:13;;;;;;;10.77;2.22;;;6.00;99.90;;;;;;5057103;28;20052;-57
2023/04/25 01:59:40;;;;;;;14.10;3.10;;;6.00;99.90;;;;;;5057477;28;20045;-56
2023/04/25 02:02:06;;;;;;;10.90;1.88;;;6.00;99.90;;;;;;5057358;28;20499;-56
2023/04/25 02:04:32;;;;;;;7.90;2.03;;;5.90;99.90;;;;;;5057068;28;20048;-56
2023/04/25 02:06:58;;;;;;;12.38;2.95;;;5.90;99.90;;;;;;5059767;28;20037;-57
2023/04/25 02:09:24;;;;;;;14.07;1.98;;;5.90;99.90;;;;;;5060549;28;20469;-57
2023/04/25 02:11:50;;;;;;;12.38;1.95;;;5.90;99.90;;;;;;5060044;28;20072;-57
2023/04/25 02:14:15;;;;;;;10.50;2.25;;;5.90;99.90;;;;;;5060678;28;20041;-56
2023/04/25 02:16:43;;;;;;;10.70;2.90;;;5.90;99.90;;;;;;5060667;28;20488;-57
2023/04/25 02:19:10;;;;;;;15.10;1.90;;;5.90;99.90;;;;;;5060323;28;20053;-55
2023/04/25 02:21:35;;;;;;;10.95;2.13;;;5.90;99.90;;;;;;5060437;28;20072;-57
2023/04/25 02:24:01;;;;;;;9.05;1.92;;;5.80;99.90;;;;;;5060482;28;20511;-55
2023/04/25 02:26:27;;;;;;;15.60;3.25;;;5.70;99.90;;;;;;5060296;28;20171;-56
2023/04/25 02:28:53;;;;;;;12.38;2.38;;;5.70;99.90;;;;;;5060234;28;20119;-56
2023/04/25 02:31:18;;;;;;;11.50;2.08;;;5.70;99.90;;;;;;5060441;28;20029;-56
2023/04/25 02:33:44;;;;;;;10.95;2.30;;;5.70;99.90;;;;;;5060117;28;20036;-56
2023/04/25 02:36:10;;;;;;;13.40;2.20;;;5.60;99.90;;;;;;5060406;28;20056;-56
2023/04/25 02:38:35;;;;;;;13.60;1.80;;;5.70;99.90;;;;;;5059921;28;20370;-56
2023/04/25 02:41:01;;;;;;;9.95;2.25;;;5.60;99.90;;;;;;5060219;28;20133;-56
2023/04/25 02:43:27;;;;;;;13.88;2.60;;;5.60;99.90;;;;;;5060022;28;20045;-56
2023/04/25 02:45:52;;;;;;;13.75;2.10;;;5.60;99.90;;;;;;5059787;28;20132;-56
2023/04/25 02:48:18;;;;;;;9.95;1.65;;;5.60;99.90;;;;;;5045218;28;20041;-56
2023/04/25 02:50:44;;;;;;;11.85;2.10;;;5.60;99.90;;;;;;5040066;28;20037;-56
2023/04/25 02:53:10;;;;;;;6.45;2.15;;;5.70;99.90;;;;;;5039866;28;20045;-56
2023/04/25 02:55:36;;;;;;;10.90;1.88;;;5.70;99.90;;;;;;5040157;28;20060;-57
2023/04/25 02:58:01;;;;;;;9.20;1.90;;;5.60;99.90;;;;;;5040159;28;20422;-57
2023/04/25 03:00:27;;;;;;;7.60;1.92;;;5.60;99.90;;;;;;5039776;28;20037;-57
2023/04/25 03:02:53;;;;;;;10.45;2.03;;;5.60;99.90;;;;;;5039416;28;20102;-57
2023/04/25 03:05:19;;;;;;;9.18;1.83;;;5.60;99.90;;;;;;5039708;28;20034;-57
2023/04/25 03:07:45;;;;;;;8.32;2.03;;;5.60;99.90;;;;;;5039298;28;20046;-56
2023/04/25 03:10:11;;;;;;;11.88;2.05;;;5.50;99.90;;;;;;5021834;28;20049;-56
2023/04/25 03:12:37;;;;;;;11.38;1.90;;;5.50;99.90;;;;;;5039741;28;20109;-57
2023/04/25 03:15:03;;;;;;;12.45;1.88;;;5.40;99.90;;;;;;5039777;28;20042;-56
2023/04/25 03:17:29;;;;;;;11.50;2.92;;;5.30;99.90;;;;;;5039348;28;20072;-56
2023/04/25 03:19:57;;;;;;;11.90;1.80;;;5.30;99.90;;;;;;5039148;28;20508;-56
2023/04/25 03:22:23;;;;;;;10.45;2.38;;;5.20;99.90;;;;;;5039367;28;20053;-56
2023/04/25 03:24:49;;;;;;;11.27;1.50;;;5.20;99.90;;;;;;5021671;28;20056;-56
2023/04/25 03:27:15;;;;;;;10.32;1.63;;;5.10;99.90;;;;;;5039320;28;20045;-57
2023/04/25 03:29:41;;;;;;;8.63;1.80;;;5.10;99.90;;;;;;5039463;28;20042;-55
2023/04/25 03:32:07;;;;;;;11.07;2.08;;;5.00;99.90;;;;;;5039071;28;20029;-56
2023/04/25 03:34:32;;;;;;;11.48;1.80;;;5.00;99.90;;;;;;5039302;28;20053;-56
2023/04/25 03:36:58;;;;;;;9.98;2.08;;;5.00;99.90;;;;;;5039041;28;20417;-55
2023/04/25 03:39:24;;;;;;;12.63;2.15;;;5.10;99.90;;;;;;5038977;28;20053;-56
2023/04/25 03:41:50;;;;;;;11.23;3.10;;;5.00;99.90;;;;;;5038871;28;20128;-57
2023/04/25 03:44:15;;;;;;;12.90;2.17;;;5.10;99.90;;;;;;5039028;28;20060;-56
2023/04/25 03:46:41;;;;;;;13.10;2.63;;;5.20;99.90;;;;;;5022156;28;20096;-57
2023/04/25 03:49:06;;;;;;;7.50;1.77;;;5.10;99.90;;;;;;5045239;28;20036;-57
2023/04/25 03:51:32;;;;;;;7.78;1.80;;;5.20;99.90;;;;;;5058763;28;20055;-56
2023/04/25 03:53:58;;;;;;;9.70;1.90;;;5.10;99.90;;;;;;5058850;28;20119;-57
2023/04/25 03:56:24;;;;;;;10.00;1.65;;;5.00;99.90;;;;;;5058571;28;20037;-57
2023/04/25 03:58:49;;;;;;;10.18;2.00;;;5.00;99.90;;;;;;5058419;28;20112;-57
2023/04/25 04:01:15;;;;;;;11.32;2.20;;;5.00;99.90;;;;;;5058223;28;20500;-57
2023/04/25 04:03:41;;;;;;;11.40;2.15;;;5.00;99.90;;;;;;5058525;28;20045;-57
2023/04/25 04:06:07;;;;;;;11.88;1.88;;;5.00;99.90;;;;;;5058808;28;20048;-56
2023/04/25 04:08:33;;;;;;;9.98;2.10;;;5.20;99.90;;;;;;5040293;28;20053;-56
2023/04/25 04:10:59;;;;;;;15.43;2.17;;;4.90;99.90;;;;;;5058633;28;20377;-56
2023/04/25 04:13:28;;;;;;;10.20;2.15;;;4.90;99.90;;;;;;5058222;28;20109;-56
2023/04/25 04:15:55;;;;;;;8.52;1.75;;;4.80;99.90;;;;;;5039968;28;20048;-56
2023/04/25 04:18:21;;;;;;;9.20;2.00;;;4.80;99.90;;;;;;5057998;28;20075;-56
2023/04/25 04:20:47;;;;;;;11.70;3.85;;;4.80;99.90;;;;;;5040357;28;20095;-57
2023/04/25 04:23:13;;;;;;;12.15;1.50;;;4.80;99.90;;;;;;5058297;28;20045;-56
2023/04/25 04:25:39;;;;;;;11.40;1.92;;;4.70;99.90;;;;;;5058217;28;20097;-56
2023/04/25 04:28:05;;;;;;;8.88;1.52;;;4.70;99.90;;;;;;5057992;28;20045;-57
2023/04/25 04:30:33;;;;;;;11.13;1.75;;;4.60;99.90;;;;;;5057760;28;20041;-56
2023/04/25 04:32:58;;;;;;;13.52;1.70;;;4.60;99.90;;;;;;5057680;28;20049;-56
2023/04/25 04:35:24;;;;;;;11.93;2.63;;;4.50;99.90;;;;;;5057988;28;20040;-57
2023/04/25 04:37:50;;;;;;;12.27;1.67;;;4.40;99.90;;;;;;5047674;28;20052;-56
2023/04/25 04:40:17;;;;;;;9.80;2.22;;;4.40;99.90;;;;;;5038207;28;20069;-57
2023/04/25 04:42:45;;;;;;;5.93;1.75;;;4.30;99.90;;;;;;5037993;28;20056;-56
2023/04/25 04:45:12;;;;;;;7.78;1.35;;;4.50;99.90;;;;;;5038151;28;20120;-56
2023/04/25 04:47:39;;;;;;;6.10;1.13;;;4.50;99.90;;;;;;5040932;28;20045;-57
2023/04/25 04:50:08;;;;;;;6.68;1.48;;;4.90;99.90;;;;;;5050885;28;20132;-57
2023/04/25 04:52:35;;;;;;;9.35;1.45;;;4.50;99.90;;;;;;5057803;28;20049;-56
2023/04/25 04:55:01;;;;;;;12.70;1.77;;;4.50;99.90;;;;;;5057815;28;20045;-56
2023/04/25 04:57:28;;;;;;;8.25;1.75;;;4.70;99.90;;;;;;5057824;28;20842;-56
2023/04/25 04:59:54;;;;;;;8.38;1.70;;;4.70;99.90;;;;;;5057638;28;20056;-56
2023/04/25 05:02:19;;;;;;;5.30;1.25;;;4.80;99.90;;;;;;5057821;28;20041;-57
2023/04/25 05:04:45;;;;;;;3.58;1.00;;;4.80;99.90;;;;;;5057440;28;20467;-56
2023/04/25 05:07:11;;;;;;;5.32;1.30;;;4.70;99.90;;;;;;5057717;28;20047;-56
2023/04/25 05:09:37;;;;;;;4.22;1.13;;;4.70;99.90;;;;;;5057342;28;20045;-57
2023/04/25 05:12:03;;;;;;;4.45;1.08;;;4.70;99.90;;;;;;5057497;28;20079;-55
2023/04/25 05:14:29;;;;;;;6.43;1.17;;;4.50;99.90;;;;;;5057591;28;20063;-56
2023/04/25 05:16:55;;;;;;;6.85;1.45;;;4.60;99.90;;;;;;5057661;28;20044;-56
2023/04/25 05:19:21;;;;;;;5.05;1.10;;;4.50;99.90;;;;;;5057581;28;20125;-56
2023/04/25 05:21:46;;;;;;;2.78;0.95;;;4.50;99.90;;;;;;5054848;28;20056;-57
2023/04/25 05:24:12;;;;;;;5.93;1.08;;;4.50;99.90;;;;;;5053916;28;20091;-57
2023/04/25 05:26:38;;;;;;;8.60;1.40;;;4.50;99.90;;;;;;5054145;28;20077;-56
2023/04/25 05:29:04;;;;;;;2.75;0.90;;;4.60;99.90;;;;;;5035967;28;20056;-56
2023/04/25 05:31:30;;;;;;;7.35;1.70;;;4.70;99.90;;;;;;5054062;28;20060;-56
2023/04/25 05:33:55;;;;;;;4.85;1.38;;;4.80;99.90;;;;;;5053898;28;20528;-57
2023/04/25 05:36:21;;;;;;;4.07;0.85;;;4.80;99.90;;;;;;5054274;28;20041;-56
2023/04/25 05:38:47;;;;;;;11.27;1.48;;;5.00;99.90;;;;;;5053731;28;20092;-56
2023/04/25 05:41:12;;;;;;;6.55;1.50;;;5.00;99.90;;;;;;5055449;28;20087;-56
2023/04/25 05:43:38;;;;;;;5.18;1.17;;;5.10;99.90;;;;;;5057890;28;20052;-55
2023/04/25 05:46:04;;;;;;;5.93;1.38;;;5.20;99.90;;;;;;5057271;28;20037;-56
2023/04/25 05:48:29;;;;;;;7.47;2.08;;;5.30;99.90;;;;;;5041386;28;20056;-55
2023/04/25 05:50:55;;;;;;;3.80;0.90;;;5.40;99.90;;;;;;5019518;28;20101;-55
2023/04/25 05:53:21;;;;;;;8.68;1.42;;;5.40;99.90;;;;;;5036818;28;20056;-56
2023/04/25 05:55:47;;;;;;;8.38;1.20;;;5.60;99.90;;;;;;5036832;28;20048;-56
2023/04/25 05:58:13;;;;;;;3.75;0.80;;;5.50;99.90;;;;;;5037008;28;20041;-57
2023/04/25 06:00:38;;;;;;;7.28;1.48;;;5.70;99.90;;;;;;5033856;28;20056;-56
2023/04/25 06:03:04;;;;;;;9.68;1.42;;;5.70;99.90;;;;;;5037529;28;20588;-56
2023/04/25 06:05:30;;;;;;;4.72;1.05;;;5.80;99.90;;;;;;5037596;28;20064;-56
2023/04/25 06:07:55;;;;;;;3.15;0.90;;;5.90;99.90;;;;;;5003455;28;20047;-56
2023/04/25 06:10:22;;;;;;;5.35;1.30;;;6.10;99.90;;;;;;5037241;28;20115;-56
2023/04/25 06:12:48;;;;;;;4.47;1.10;;;6.30;99.90;;;;;;5019711;28;20053;-56
2023/04/25 06:15:15;;;;;;;5.07;1.30;;;6.50;99.90;;;;;;5037334;28;20037;-56
2023/04/25 06:17:41;;;;;;;7.03;1.08;;;6.50;99.90;;;;;;5019472;28;20049;-56
2023/04/25 06:20:08;;;;;;;7.47;1.10;;;6.70;99.90;;;;;;5019124;28;20060;-57
2023/04/25 06:22:33;;;;;;;6.20;1.20;;;6.70;99.90;;;;;;5036934;28;20674;-56
2023/04/25 06:25:00;;;;;;;8.85;1.42;;;6.90;99.90;;;;;;5036970;28;20042;-57
2023/04/25 06:27:25;;;;;;;5.65;1.02;;;6.90;99.90;;;;;;5037147;28;20042;-57
2023/04/25 06:29:51;;;;;;;5.65;0.98;;;6.90;99.90;;;;;;5019392;28;20063;-56
2023/04/25 06:32:18;;;;;;;8.00;1.20;;;6.80;99.90;;;;;;5019385;28;20053;-56
2023/04/25 06:34:43;;;;;;;6.28;1.38;;;6.60;99.90;;;;;;5036498;28;20087;-56
2023/04/25 06:37:09;;;;;;;5.53;1.30;;;6.60;99.90;;;;;;5036867;28;20116;-57
2023/04/25 06:39:35;;;;;;;3.53;1.20;;;6.50;99.90;;;;;;5036269;28;20115;-56
2023/04/25 06:42:01;;;;;;;9.10;1.20;;;6.40;99.90;;;;;;5037054;28;20108;-56
2023/04/25 06:44:29;;;;;;;6.43;1.27;;;6.20;99.90;;;;;;5036883;28;20034;-56
2023/04/25 06:46:54;;;;;;;10.77;1.77;;;6.10;99.90;;;;;;5036388;28;20108;-57
2023/04/25 06:49:20;;;;;;;5.80;1.35;;;6.10;99.90;;;;;;5036887;28;20042;-58
2023/04/25 06:51:46;;;;;;;5.22;1.02;;;6.10;99.90;;;;;;5036066;28;20137;-56
2023/04/25 06:54:11;;;;;;;7.90;1.40;;;6.10;99.90;;;;;;5036280;28;20053;-56
2023/04/25 06:56:37;;;;;;;3.80;0.82;;;6.20;99.90;;;;;;5036930;28;20046;-57
2023/04/25 06:59:03;;;;;;;2.53;1.40;;;6.20;99.90;;;;;;5018620;28;20072;-56
2023/04/25 07:01:28;;;;;;;5.68;1.40;;;6.30;99.90;;;;;;5036591;28;20034;-56
2023/04/25 07:03:54;;;;;;;5.78;1.20;;;6.30;99.90;;;;;;5036730;28;20099;-56
2023/04/25 07:06:20;;;;;;;5.95;1.60;;;6.40;99.90;;;;;;5018783;28;20077;-55
2023/04/25 07:08:45;;;;;;;5.80;0.90;;;6.50;99.90;;;;;;5036224;28;20053;-56
2023/04/25 07:11:11;;;;;;;7.75;0.95;;;6.50;99.90;;;;;;5035955;28;20158;-57
2023/04/25 07:13:37;;;;;;;6.60;1.33;;;6.60;99.90;;;;;;5036412;28;20152;-57
2023/04/25 07:16:03;;;;;;;4.85;0.90;;;6.70;99.90;;;;;;5036138;28;20041;-57
2023/04/25 07:18:28;;;;;;;3.20;1.05;;;6.80;99.90;;;;;;5036256;28;20405;-56
2023/04/25 07:20:54;;;;;;;4.40;1.02;;;6.70;99.90;;;;;;5037883;28;20105;-56
2023/04/25 07:23:20;;;;;;;8.00;1.63;;;6.70;99.90;;;;;;5036021;28;20045;-57
2023/04/25 07:25:46;;;;;;;9.48;1.25;;;6.70;99.90;;;;;;5035928;28;20049;-56
2023/04/25 07:28:12;;;;;;;7.57;1.48;;;6.70;99.90;;;;;;5035707;28;20462;-56
2023/04/25 07:30:38;;;;;;;5.20;1.30;;;6.90;99.90;;;;;;5035942;28;20048;-56
2023/04/25 07:33:04;;;;;;;3.75;0.85;;;6.70;99.90;;;;;;5035524;28;20097;-56
2023/04/25 07:35:29;;;;;;;1.63;0.60;;;6.10;99.90;;;;;;5018064;28;20109;-57
2023/04/25 07:37:55;;;;;;;3.55;1.08;;;5.90;99.90;;;;;;5035575;28;20076;-56
2023/04/25 07:40:21;;;;;;;5.18;0.85;;;5.80;99.90;;;;;;5035814;28;20041;-56
2023/04/25 07:42:47;;;;;;;3.22;0.90;;;6.00;99.90;;;;;;5035590;28;20038;-56
2023/04/25 07:45:12;;;;;;;4.70;0.80;;;6.00;99.90;;;;;;5017974;28;20049;-57
2023/04/25 07:47:38;;;;;;;5.97;1.10;;;6.10;99.90;;;;;;5035331;28;20100;-56
2023/04/25 07:50:04;;;;;;;3.40;0.85;;;6.40;99.90;;;;;;5048583;28;20045;-56
2023/04/25 07:52:30;;;;;;;3.08;0.80;;;6.60;99.90;;;;;;5054971;28;20041;-55
2023/04/25 07:54:57;;;;;;;5.85;1.00;;;6.90;99.90;;;;;;5056346;28;20060;-56
2023/04/25 07:57:24;;;;;;;3.42;0.70;;;6.90;99.90;;;;;;5058049;28;20049;-57
2023/04/25 07:59:49;;;;;;;3.30;0.70;;;6.10;99.90;;;;;;5058608;28;20040;-57
2023/04/25 08:02:15;;;;;;;2.90;0.70;;;5.50;99.90;;;;;;5058672;28;20119;-63
2023/04/25 08:04:41;;;;;;;5.28;0.90;;;4.80;99.90;;;;;;5056362;28;20071;-59
2023/04/25 08:07:06;;;;;;;4.40;0.82;;;4.80;99.90;;;;;;5058176;28;20045;-58
2023/04/25 08:09:36;;;;;;;2.42;1.15;;;4.90;99.90;;;;;;5058167;28;20515;-58
2023/04/25 08:12:03;;;;;;;2.63;1.00;;;4.90;99.90;;;;;;5040448;28;20055;-58
2023/04/25 08:14:35;;;;;;;3.13;1.08;;;5.00;99.90;;;;;;5058452;28;20045;-58
2023/04/25 08:17:01;;;;;;;;;;;4.90;99.90;;;;;;5058931;28;20045;-58
2023/04/25 08:19:27;;;;;;;2.63;0.80;;;5.00;99.90;;;;;;5058220;28;19928;-58
2023/04/25 08:21:52;;;;;;;6.97;0.90;;;4.80;99.90;;;;;;5057819;28;20053;-57
2023/04/25 08:24:18;;;;;;;2.45;0.80;;;5.00;99.90;;;;;;5058076;28;20100;-58
2023/04/25 08:26:44;;;;;;;5.13;1.20;;;5.20;99.90;;;;;;5058193;28;20052;-58
2023/04/25 08:29:09;;;;;;;3.75;1.10;;;5.50;99.90;;;;;;5057907;28;20045;-56
2023/04/25 08:31:35;;;;;;;4.05;1.33;;;5.70;99.90;;;;;;5055431;28;20051;-58
2023/04/25 08:34:01;;;;;;;7.13;1.30;;;5.90;99.90;;;;;;5037280;28;20100;-57
2023/04/25 08:36:27;;;;;;;4.15;0.90;;;6.00;99.90;;;;;;5037518;28;20044;-57
2023/04/25 08:38:53;;;;;;;3.40;0.90;;;6.10;99.90;;;;;;5036893;28;20041;-57
2023/04/25 08:41:20;;;;;;;3.10;1.15;;;6.00;99.90;;;;;;5036690;28;20033;-58
2023/04/25 08:43:49;;;;;;;7.18;1.58;;;6.00;99.90;;;;;;5037602;28;20648;-57
2023/04/25 08:46:18;;;;;;;3.30;1.10;;;6.00;99.90;;;;;;5037922;28;20057;-57
2023/04/25 08:48:45;;;;;;;1.95;0.88;;;6.10;99.90;;;;;;5037527;28;20432;-58
2023/04/25 08:51:21;;;;;;;4.93;1.08;;;6.00;99.90;;;;;;5038026;28;20045;-57
2023/04/25 08:53:50;;;;;;;4.57;1.17;;;6.20;99.90;;;;;;5037573;28;20052;-58
2023/04/25 08:56:17;;;;;;;7.50;1.25;;;6.30;99.90;;;;;;5037551;28;20640;-58
2023/04/25 08:58:45;;;;;;;5.35;0.90;;;6.50;99.90;;;;;;5037156;28;20281;-57
2023/04/25 09:01:11;;;;;;;4.07;1.20;;;6.90;99.90;;;;;;5043804;28;20036;-57
2023/04/25 09:03:38;;;;;;;6.10;1.42;;;7.20;99.90;;;;;;5057721;28;20045;-57
2023/04/25 09:06:04;;;;;;;6.47;1.67;;;7.20;99.90;;;;;;5039518;28;20056;-56
2023/04/25 09:08:30;;;;;;;4.43;0.95;;;7.40;99.90;;;;;;5057220;28;20552;-57
2023/04/25 09:10:55;;;;;;;8.88;1.33;;;7.50;99.90;;;;;;5057493;28;20521;-58
2023/04/25 09:13:26;;;;;;;4.43;1.13;;;7.80;99.90;;;;;;5057534;28;20048;-57
2023/04/25 09:15:57;;;;;;;7.53;1.92;;;7.80;99.90;;;;;;5059834;28;20049;-57
2023/04/25 09:18:33;;;;;;;8.15;1.70;;;7.60;99.90;;;;;;5061503;28;20559;-62
2023/04/25 09:21:12;;;;;;;9.00;1.70;;;6.90;99.90;;;;;;5061224;28;20049;-58
2023/04/25 09:23:48;;;;;;;9.18;1.70;;;6.90;99.90;;;;;;5061716;28;20104;-58
2023/04/25 09:26:19;;;;;;;6.80;1.10;;;6.80;99.90;;;;;;5061455;28;20049;-59
2023/04/25 09:28:47;;;;;;;4.28;1.13;;;7.00;99.90;;;;;;5061238;28;20041;-58
2023/04/25 09:31:24;;;;;;;6.80;1.10;;;7.50;99.90;;;;;;5061460;28;20487;-58
2023/04/25 09:33:50;;;;;;;6.65;1.10;;;7.80;99.90;;;;;;5043514;28;20053;-58
2023/04/25 09:36:15;;;;;;;6.40;1.40;;;7.80;99.90;;;;;;5061622;28;20211;-58
2023/04/25 09:38:46;;;;;;;4.50;1.00;;;7.70;99.90;;;;;;5060650;28;20055;-58
2023/04/25 09:41:12;;;;;;;8.75;0.95;;;7.40;99.90;;;;;;5061233;28;20064;-58
2023/04/25 09:43:39;;;;;;;6.65;1.73;;;7.20;99.90;;;;;;5061330;28;20072;-58
2023/04/25 09:46:11;;;;;;;5.10;1.00;;;7.00;99.90;;;;;;5061176;28;20087;-58
2023/04/25 09:48:37;;;;;;;;;;;7.20;99.90;;;;;;5038398;28;20091;-58
2023/04/25 09:51:03;;;;;;;5.85;1.55;;;7.70;99.90;;;;;;5061124;28;19920;-58
2023/04/25 09:53:29;;;;;;;7.07;1.33;;;7.60;99.90;;;;;;5061007;28;20053;-57
2023/04/25 09:55:56;;;;;;;6.47;1.38;;;8.00;99.90;;;;;;5060960;28;20111;-58
2023/04/25 09:58:24;;;;;;;11.80;2.83;;;8.20;99.90;;;;;;5060742;28;20468;-58
2023/04/25 10:00:51;;;;;;;9.15;1.60;;;8.20;99.90;;;;;;5060569;28;20067;-58
2023/04/25 10:03:19;;;;;;;6.57;1.42;;;8.20;99.90;;;;;;5060537;28;20041;-58
2023/04/25 10:05:46;;;;;;;4.63;1.10;;;8.20;99.90;;;;;;5043190;28;20707;-58
2023/04/25 10:08:13;;;;;;;8.20;1.20;;;8.00;99.90;;;;;;5060664;28;20053;-57
2023/04/25 10:10:40;;;;;;;5.93;1.30;;;7.80;99.90;;;;;;5061020;28;20048;-57
2023/04/25 10:13:06;;;;;;;7.05;1.55;;;7.50;99.90;;;;;;5060340;28;20057;-57
2023/04/25 10:15:36;;;;;;;6.00;1.02;;;7.40;99.90;;;;;;5060458;28;20121;-58
2023/04/25 10:18:02;;;;;;;7.35;1.15;;;7.80;99.90;;;;;;5060683;28;20060;-57
2023/04/25 10:20:29;;;;;;;4.38;1.00;;;8.10;99.90;;;;;;5060078;28;20064;-57
2023/04/25 10:23:07;;;;;;;8.77;1.70;;;8.00;99.90;;;;;;5043063;28;20055;-57
2023/04/25 10:25:33;;;;;;;7.32;1.50;;;8.00;99.90;;;;;;5042279;28;20084;-57
2023/04/25 10:28:01;;;;;;;4.88;1.05;;;8.40;99.90;;;;;;5058457;28;20083;-58
2023/04/25 10:30:27;;;;;;;13.68;2.03;;;8.50;99.90;;;;;;5060079;28;21098;-57
2023/04/25 10:32:55;;;;;;;6.88;1.17;;;8.00;99.90;;;;;;5060085;28;20052;-57
2023/04/25 10:35:26;;;;;;;6.47;1.20;;;7.40;99.90;;;;;;5060268;28;20496;-58
2023/04/25 10:38:08;;;;;;;3.75;1.10;;;7.40;99.90;;;;;;5060246;28;20083;-57
2023/04/25 10:40:34;;;;;;;2.97;0.98;;;7.40;99.90;;;;;;5059850;28;20051;-57
2023/04/25 10:43:31;;;;;;;5.32;1.17;;;7.40;99.90;;;;;;5059985;28;20128;-57
2023/04/25 10:46:00;;;;;;;7.55;1.48;;;7.70;99.90;;;;;;5059746;28;20049;-57
2023/04/25 10:48:26;;;;;;;6.28;1.08;;;7.50;99.90;;;;;;5044360;28;20034;-55
2023/04/25 10:51:11;;;;;;;4.00;0.98;;;7.70;99.90;;;;;;5002326;28;20079;-57
2023/04/25 10:53:37;;;;;;;5.43;1.85;;;8.00;99.90;;;;;;5020252;28;20050;-57
2023/04/25 10:56:23;;;;;;;3.65;1.27;;;7.60;99.90;;;;;;5020125;28;20540;-57
2023/04/25 10:58:49;;;;;;;4.53;1.05;;;7.60;99.90;;;;;;5019938;28;20445;-57
2023/04/25 11:01:19;;;;;;;8.52;2.08;;;7.70;99.90;;;;;;5020072;28;20065;-57
2023/04/25 11:03:47;;;;;;;7.53;1.20;;;8.00;99.90;;;;;;5020086;28;20500;-57
2023/04/25 11:06:29;;;;;;;4.68;1.05;;;8.10;99.90;;;;;;5020202;28;20480;-57
2023/04/25 11:08:55;;;;;;;;;;;8.30;99.90;;;;;;5002376;28;20050;-57
2023/04/25 11:11:20;;;;;;;10.75;1.23;;;8.30;99.90;;;;;;5019782;28;19993;-57
2023/04/25 11:13:50;;;;;;;5.25;1.50;;;8.40;99.90;;;;;;5019688;28;20049;-57
2023/04/25 11:16:16;;;;;;;7.20;1.23;;;8.30;99.90;;;;;;5019433;28;20058;-56
2023/04/25 11:18:43;;;;;;;5.63;1.45;;;8.30;99.90;;;;;;5019874;28;20065;-56
2023/04/25 11:21:09;;;;;;;3.95;1.10;;;8.40;99.90;;;;;;5019362;28;20462;-57
2023/04/25 11:23:36;;;;;;;4.18;1.00;;;8.60;99.90;;;;;;5019675;28;20858;-57
2023/04/25 11:26:03;;;;;;;6.63;1.17;;;8.40;99.90;;;;;;5019466;28;20056;-57
2023/04/25 11:28:29;;;;;;;7.82;1.35;;;8.30;99.90;;;;;;5019515;28;20046;-57
2023/04/25 11:30:55;;;;;;;5.82;1.23;;;8.20;99.90;;;;;;5019454;28;20048;-57
2023/04/25 11:33:25;;;;;;;8.13;1.10;;;8.40;99.90;;;;;;5037545;28;20041;-57
2023/04/25 11:35:55;;;;;;;4.10;1.15;;;8.40;99.90;;;;;;5038763;28;20057;-57
2023/04/25 11:38:22;;;;;;;5.35;1.05;;;8.60;99.90;;;;;;5038977;28;20139;-57
2023/04/25 11:40:54;;;;;;;6.03;1.10;;;8.70;99.90;;;;;;5039228;28;20048;-57
2023/04/25 11:43:21;;;;;;;6.10;0.93;;;8.80;99.90;;;;;;5038886;28;20049;-57
2023/04/25 11:45:52;;;;;;;6.88;1.30;;;8.30;99.90;;;;;;5038511;28;20069;-57
2023/04/25 11:48:18;;;;;;;7.25;1.00;;;8.40;99.90;;;;;;5038908;28;20141;-56
2023/04/25 11:50:45;;;;;;;8.18;1.42;;;8.60;99.90;;;;;;5038767;28;20048;-57
2023/04/25 11:53:10;;;;;;;5.03;1.75;;;8.50;99.90;;;;;;5021089;28;20057;-57
2023/04/25 11:55:37;;;;;;;4.28;0.95;;;8.20;99.90;;;;;;5038788;28;20045;-57
2023/04/25 11:58:04;;;;;;;6.93;1.13;;;8.00;99.90;;;;;;5038706;28;20561;-57
2023/04/25 12:00:31;;;;;;;5.93;1.30;;;8.00;99.90;;;;;;5016828;28;20054;-56
2023/04/25 12:02:58;;;;;;;5.15;0.93;;;7.90;99.90;;;;;;5035384;28;20097;-57
2023/04/25 12:05:25;;;;;;;5.70;1.13;;;8.00;99.90;;;;;;5017595;28;20049;-56
2023/04/25 12:07:51;;;;;;;7.65;1.23;;;8.00;99.90;;;;;;5035264;28;20057;-55
2023/04/25 12:10:18;;;;;;;8.65;0.93;;;8.10;99.90;;;;;;5034755;28;20056;-56
2023/04/25 12:12:46;;;;;;;6.50;1.00;;;8.50;99.90;;;;;;5034596;28;20045;-56
2023/04/25 12:15:23;;;;;;;2.80;1.10;;;8.80;99.90;;;;;;5035311;28;20076;-56
2023/04/25 12:17:50;;;;;;;6.07;1.40;;;8.70;99.90;;;;;;5035283;28;20049;-56
2023/04/25 12:20:20;;;;;;;6.05;1.00;;;9.00;99.90;;;;;;5034551;28;20058;-57
2023/04/25 12:22:47;;;;;;;8.52;1.17;;;8.90;99.90;;;;;;5035885;28;20068;-57
2023/04/25 12:25:39;;;;;;;6.25;1.30;;;8.50;99.90;;;;;;5037794;28;20056;-56
2023/04/25 12:28:27;;;;;;;6.53;1.30;;;8.40;99.90;;;;;;5038193;28;20041;-57
2023/04/25 12:30:52;;;;;;;6.38;1.15;;;8.40;99.90;;;;;;5037829;28;20056;-56
2023/04/25 12:33:18;;;;;;;8.20;1.40;;;8.30;99.90;;;;;;5037916;28;20049;-56
2023/04/25 12:35:44;;;;;;;11.63;1.70;;;8.70;99.90;;;;;;5037918;28;20125;-56
2023/04/25 12:38:09;;;;;;;5.95;1.10;;;8.70;99.90;;;;;;5037285;28;20037;-56
2023/04/25 12:40:35;;;;;;;5.70;1.08;;;8.80;99.90;;;;;;5037819;28;20045;-56
2023/04/25 12:43:00;;;;;;;5.47;1.02;;;8.60;99.90;;;;;;5037776;28;20056;-56
2023/04/25 12:45:26;;;;;;;6.57;1.58;;;8.70;99.90;;;;;;5037661;28;20120;-57
2023/04/25 12:47:52;;;;;;;7.93;1.10;;;8.50;99.90;;;;;;5037565;28;20071;-57
2023/04/25 12:50:17;;;;;;;5.15;1.10;;;8.30;99.90;;;;;;5037233;28;20521;-56
2023/04/25 12:52:43;;;;;;;6.32;1.20;;;8.40;99.90;;;;;;5037800;28;20413;-56
2023/04/25 12:55:09;;;;;;;7.13;1.33;;;8.60;99.90;;;;;;5037964;28;20448;-57